createdAt,value
2023-01-28T00:05:46.003Z,102243.16
2023-01-28T00:12:47.600Z,102247.66
2023-01-28T00:19:49.294Z,102244.13
2023-01-28T00:26:51.404Z,102252.97
2023-01-28T00:33:53.269Z,102267.25
2023-01-28T00:40:55.121Z,102264.63
2023-01-28T00:47:58.461Z,102263.75
2023-01-28T00:55:00.485Z,102273.53
2023-01-28T01:02:12.469Z,102278.84
2023-01-28T01:09:14.369Z,102276.22
2023-01-28T01:16:19.333Z,102277.13
2023-01-28T01:23:23.512Z,102273.56
2023-01-28T01:30:25.602Z,102271.78
2023-01-28T01:37:27.861Z,102277.97
2023-01-28T01:45:00.932Z,102278.88
2023-01-28T01:52:06.169Z,102290.38
2023-01-28T01:59:12.771Z,102289.50
2023-01-28T02:06:14.559Z,102287.69
2023-01-28T02:13:17.945Z,102294.81
2023-01-28T02:20:58.329Z,102285.03
2023-01-28T02:28:23.900Z,102286.78
2023-01-28T02:36:02.538Z,102281.47
2023-01-28T02:43:04.607Z,102292.13
2023-01-28T02:50:12.007Z,102293.03
2023-01-28T02:57:27.207Z,102291.22
2023-01-28T03:04:30.386Z,102293.00
2023-01-28T03:11:52.720Z,102291.22
2023-01-28T03:19:12.979Z,102295.66
2023-01-28T03:26:33.408Z,102295.66
2023-01-28T03:33:54.118Z,102297.41
2023-01-28T03:40:57.471Z,102289.41
2023-01-28T03:47:59.376Z,102298.31
2023-01-28T03:55:01.574Z,102288.53
2023-01-28T04:02:03.529Z,102292.09
2023-01-28T04:09:06.008Z,102287.63
2023-01-28T04:16:23.090Z,102295.66
2023-01-28T04:23:24.884Z,102293.84
2023-01-28T04:30:26.977Z,102300.06
2023-01-28T04:37:43.763Z,102299.16
2023-01-28T04:45:11.633Z,102296.53
2023-01-28T04:52:33.634Z,102287.53
2023-01-28T04:59:44.289Z,102288.47
2023-01-28T05:06:47.079Z,102285.78
2023-01-28T05:13:51.817Z,102288.50
2023-01-28T05:20:55.018Z,102315.97
2023-01-28T05:27:56.821Z,102316.84
2023-01-28T05:34:58.552Z,102309.72
2023-01-28T05:42:00.680Z,102311.50
2023-01-28T05:49:03.177Z,102309.72
2023-01-28T05:56:22.987Z,102312.34
2023-01-28T06:03:24.839Z,102312.31
2023-01-28T06:10:26.829Z,102306.16
2023-01-28T06:17:29.655Z,102318.59
2023-01-28T06:24:42.410Z,102319.50
2023-01-28T06:31:44.200Z,102327.44
2023-01-28T06:38:45.867Z,102321.25
2023-01-28T06:45:47.519Z,102329.16
2023-01-28T06:52:49.187Z,102330.06
2023-01-28T06:59:50.860Z,102325.69
2023-01-28T07:06:52.463Z,102340.75
2023-01-28T07:13:54.079Z,102339.00
2023-01-28T07:20:56.461Z,102350.59
2023-01-28T07:28:00.655Z,102336.28
2023-01-28T07:35:02.240Z,102346.94
2023-01-28T07:42:03.970Z,102332.72
2023-01-28T07:49:10.487Z,102345.97
2023-01-28T07:56:12.027Z,102348.66
2023-01-28T08:03:16.887Z,102338.84
2023-01-28T08:10:18.833Z,102354.81
2023-01-28T08:17:20.433Z,102361.94
2023-01-28T08:24:22.234Z,102360.09
2023-01-28T08:31:24.256Z,102361.84
2023-01-28T08:38:25.903Z,102386.72
2023-01-28T08:45:28.180Z,102375.19
2023-01-28T08:52:29.901Z,102376.03
2023-01-28T08:59:31.756Z,102387.59
2023-01-28T09:06:33.436Z,102392.84
2023-01-28T09:13:35.131Z,102394.63
2023-01-28T09:20:37.094Z,102414.25
2023-01-28T09:27:38.826Z,102412.28
2023-01-28T09:34:40.553Z,102413.19
2023-01-28T09:41:51.327Z,102412.28
2023-01-28T09:48:52.945Z,102419.38
2023-01-28T09:56:06.222Z,102425.56
2023-01-28T10:03:29.525Z,102436.31
2023-01-28T10:10:38.874Z,102422.06
2023-01-28T10:17:44.081Z,102420.25
2023-01-28T10:24:51.395Z,102418.56
2023-01-28T10:32:04.171Z,102414.91
2023-01-28T10:39:06.741Z,102397.94
2023-01-28T10:46:20.173Z,102399.75
2023-01-28T10:53:36.964Z,102403.22
2023-01-28T11:00:38.634Z,102391.44
2023-01-28T11:07:40.275Z,102396.94
2023-01-28T11:14:50.781Z,102396.63
2023-01-28T11:21:54.082Z,102396.69
2023-01-28T11:28:55.673Z,102386.00
2023-01-28T11:36:18.534Z,102383.22
2023-01-28T11:43:24.871Z,102377.09
2023-01-28T11:50:35.582Z,102372.59
2023-01-28T11:57:46.991Z,102351.50
2023-01-28T12:04:48.554Z,102355.88
2023-01-28T12:12:13.241Z,102351.50
2023-01-28T12:19:22.375Z,102350.19
2023-01-28T12:26:48.610Z,102347.53
2023-01-28T12:33:56.212Z,102352.03
2023-01-28T12:41:07.887Z,102350.41
2023-01-28T12:48:27.466Z,102329.06
2023-01-28T12:55:40.044Z,102335.13
2023-01-28T13:02:43.186Z,102331.66
2023-01-28T13:09:59.019Z,102318.31
2023-01-28T13:17:13.452Z,102303.13
2023-01-28T13:24:15.366Z,102283.69
2023-01-28T13:31:18.645Z,102297.94
2023-01-28T13:38:20.349Z,102301.50
2023-01-28T13:45:23.183Z,102291.59
2023-01-28T13:52:29.116Z,102296.03
2023-01-28T13:59:59.970Z,102291.59
2023-01-28T14:07:01.440Z,102286.16
2023-01-28T14:14:23.251Z,102278.88
2023-01-28T14:21:26.427Z,102274.81
2023-01-28T14:28:52.388Z,102257.56
2023-01-28T14:35:54.053Z,102266.53
2023-01-28T14:42:55.771Z,102291.50
2023-01-28T14:50:03.568Z,102292.41
2023-01-28T14:57:26.114Z,102300.69
2023-01-28T15:04:32.305Z,102281.06
2023-01-28T15:11:33.988Z,102294.59
2023-01-28T15:18:37.334Z,102301.75
2023-01-28T15:25:38.891Z,102286.44
2023-01-28T15:32:40.490Z,102297.19
2023-01-28T15:39:42.117Z,102289.16
2023-01-28T15:46:43.726Z,102295.44
2023-01-28T15:53:46.599Z,102299.06
2023-01-28T16:00:48.471Z,102310.59
2023-01-28T16:07:50.218Z,102316.00
2023-01-28T16:14:54.491Z,102325.84
2023-01-28T16:21:56.116Z,102310.75
2023-01-28T16:28:59.137Z,102312.63
2023-01-28T16:36:08.944Z,102294.75
2023-01-28T16:43:11.959Z,102311.59
2023-01-28T16:50:14.119Z,102324.09
2023-01-28T16:57:16.588Z,102324.91
2023-01-28T17:04:18.303Z,102334.84
2023-01-28T17:11:19.957Z,102355.41
2023-01-28T17:18:21.655Z,102359.94
2023-01-28T17:32:24.934Z,102376.75
2023-01-28T17:39:26.541Z,102387.34
2023-01-28T17:46:28.357Z,102365.09
2023-01-28T17:53:30.498Z,102363.34
2023-01-28T18:00:32.313Z,102365.09
2023-01-28T18:07:33.965Z,102370.56
2023-01-28T18:14:35.728Z,102370.56
2023-01-28T18:21:54.159Z,102362.72
2023-01-28T18:28:57.831Z,102371.59
2023-01-28T18:36:00.677Z,102361.84
2023-01-28T18:43:02.269Z,102372.53
2023-01-28T18:50:05.385Z,102359.28
2023-01-28T18:57:07.197Z,102370.78
2023-01-28T19:04:08.961Z,102379.72
2023-01-28T19:11:10.546Z,102366.41
2023-01-28T19:18:12.312Z,102364.59
2023-01-28T19:25:14.377Z,102365.50
2023-01-28T19:32:17.013Z,102345.84
2023-01-28T19:39:18.669Z,102366.31
2023-01-28T19:46:20.373Z,102352.13
2023-01-28T19:53:22.016Z,102373.50
2023-01-28T20:00:23.668Z,102377.09
2023-01-28T20:07:25.265Z,102392.22
2023-01-28T20:14:27.895Z,102401.03
2023-01-28T20:21:29.882Z,102393.03
2023-01-28T20:28:31.583Z,102371.81
2023-01-28T20:35:33.411Z,102362.88
2023-01-28T20:42:35.093Z,102365.56
2023-01-28T20:49:36.783Z,102370.94
2023-01-28T20:56:38.402Z,102362.03
2023-01-28T21:03:39.967Z,102360.34
2023-01-28T21:10:42.319Z,102362.91
2023-01-28T21:17:43.970Z,102358.47
2023-01-28T21:24:48.063Z,102350.47
2023-01-28T21:31:49.672Z,102331.94
2023-01-28T21:38:56.348Z,102346.13
2023-01-28T21:46:01.523Z,102342.59
2023-01-28T21:53:03.188Z,102350.59
2023-01-28T22:00:05.746Z,102343.56
2023-01-28T22:07:17.085Z,102334.66
2023-01-28T22:14:19.016Z,102327.56
2023-01-28T22:21:20.693Z,102320.50
2023-01-28T22:28:22.953Z,102324.84
2023-01-28T22:35:24.562Z,102324.97
2023-01-28T22:42:26.269Z,102324.94
2023-01-28T22:49:27.894Z,102318.72
2023-01-28T22:56:30.459Z,102310.69
2023-01-28T23:03:32.290Z,102319.59
2023-01-28T23:10:34.089Z,102308.00
2023-01-28T23:17:54.410Z,102291.16
2023-01-28T23:24:56.134Z,102284.88
2023-01-28T23:32:06.409Z,102283.09
2023-01-28T23:39:08.562Z,102260.03
2023-01-28T23:46:10.549Z,102266.25
2023-01-28T23:53:14.402Z,102255.59
